Tralee, Ireland
Current Conditions -  °F | °C
As of 5:00 PM on Monday 22 Dec 2014 (Local Time) from EIKY Reporting Station
Light Rain Light Rain  
Wind Chill: 54°   Ceiling: 1100
Heat Index: 54°   Visibility: 6mi
Dew Point: 50°   Wind: 30mph
Humidity: 88%   Direction: 250°WSW
Pressure: 29.94"   Gusts: 43mph
Location:  52.28°N, 9.72°W
Report Text: EIKY 221600Z 25026G37KT 9999 -RA BKN011 BKN017 12/10 Q1014
Loading
Personal Weather Stations






























Interactive Weather Map New forecast layout! Learn more

10-Day Weather Forecast

Advertisements
Track Severe Weather on mobile